Time;durP1;ratioP1;P1;durP2;ratioP2;P2;SDS_P1;SDS_P2;PMS_P1;PMS_P2;Temp;Humidity;BMP_temperature;BMP_pressure;BME280_temperature;BME280_humidity;BME280_pressure;Samples;Min_cycle;Max_cycle;Signal;HPM_P1;HPM_P2
2022/01/30 00:00:34;;;;;;;15.87;8.07;;;;;;;0.94;70.45;99886.56;5051585;28;20404;-83
2022/01/30 00:03:00;;;;;;;17.33;7.63;;;;;;;1.11;70.67;99936.28;5050835;28;20165;-83
2022/01/30 00:05:27;;;;;;;16.63;7.53;;;;;;;1.19;69.95;99895.47;5052079;28;20696;-82
2022/01/30 00:07:53;;;;;;;14.87;6.97;;;;;;;0.36;70.36;99770.94;5052247;28;20162;-82
2022/01/30 00:10:18;;;;;;;12.47;5.97;;;;;;;1.11;70.31;99906.38;5051993;28;20573;-82
2022/01/30 00:12:52;;;;;;;17.57;8.20;;;;;;;1.13;70.00;99907.38;5051806;28;20192;-82
2022/01/30 00:15:19;;;;;;;16.47;8.30;;;;;;;0.33;68.92;99739.16;5051973;28;20185;-83
2022/01/30 00:17:54;;;;;;;15.07;7.43;;;;;;;1.13;69.40;99893.31;5052420;28;20454;-83
2022/01/30 00:20:23;;;;;;;15.10;7.67;;;;;;;-0.31;69.90;99657.06;5051798;28;20404;-82
2022/01/30 00:25:26;;;;;;;19.20;8.47;;;;;;;-0.29;69.40;99653.97;5052179;28;20184;-82
2022/01/30 00:28:02;;;;;;;18.07;8.30;;;;;;;0.56;70.37;99830.84;5050466;28;20173;-82
2022/01/30 00:30:33;;;;;;;11.45;5.28;;;;;;;-0.20;70.72;99707.03;5051998;28;20965;-82
2022/01/30 00:32:58;;;;;;;13.73;6.70;;;;;;;0.69;69.96;99863.59;5051710;28;20201;-82
2022/01/30 00:35:24;;;;;;;16.93;7.47;;;;;;;0.13;70.31;99766.41;5051875;28;20164;-82
2022/01/30 00:37:49;;;;;;;9.50;5.13;;;;;;;0.87;70.04;99914.19;5051768;28;20241;-82
2022/01/30 00:40:14;;;;;;;15.37;7.27;;;;;;;-2.97;69.41;99240.47;5051399;28;20191;-83
2022/01/30 00:42:40;;;;;;;15.70;6.90;;;;;;;0.97;69.30;99896.81;5051654;28;20168;-82
2022/01/30 00:45:06;;;;;;;17.53;8.43;;;;;;;-0.05;69.11;99714.97;5052575;28;20173;-81
2022/01/30 00:47:31;;;;;;;15.57;7.47;;;;;;;0.97;68.86;99881.84;5052117;28;20716;-82
2022/01/30 00:49:57;;;;;;;10.70;5.87;;;;;;;1.02;68.56;99870.66;5051561;28;20165;-82
2022/01/30 00:52:23;;;;;;;14.00;6.27;;;;;;;0.65;68.00;99808.38;5067215;28;20165;-82
2022/01/30 00:54:48;;;;;;;14.13;6.90;;;;;;;1.01;68.23;99878.91;5051618;28;20177;-82
2022/01/30 00:57:13;;;;;;;11.30;6.27;;;;;;;-1.59;68.39;99405.31;5051466;28;20169;-82
2022/01/30 00:59:39;;;;;;;14.53;7.57;;;;;;;0.41;68.42;99765.63;5051571;28;20248;-82
2022/01/30 01:02:04;;;;;;;9.63;4.93;;;;;;;0.25;69.16;99742.59;5051589;28;20169;-82
2022/01/30 01:04:30;;;;;;;13.97;6.93;;;;;;;-0.52;69.38;99612.91;5051356;28;20154;-82
2022/01/30 01:06:55;;;;;;;13.70;6.60;;;;;;;-0.03;69.22;99714.38;5051411;28;20191;-82
2022/01/30 01:09:26;;;;;;;18.20;9.47;;;;;;;0.25;69.66;99769.97;5051518;28;20176;-82
2022/01/30 01:25:15;;;;;;;13.32;6.90;;;;;;;0.47;70.34;99790.19;5055762;28;20171;-82
2022/01/30 01:27:41;;;;;;;10.67;5.57;;;;;;;0.47;70.15;99787.69;5055234;28;20165;-82
2022/01/30 01:30:07;;;;;;;10.63;5.27;;;;;;;-0.32;69.70;99650.34;5055173;28;20165;-82
2022/01/30 01:32:32;;;;;;;16.50;8.20;;;;;;;0.38;70.29;99780.31;5054774;28;20411;-82
2022/01/30 01:34:58;;;;;;;17.87;8.57;;;;;;;0.36;70.56;99778.41;5055264;28;20646;-82
2022/01/30 01:37:23;;;;;;;18.53;7.77;;;;;;;0.27;70.42;99770.13;5070538;28;20169;-82
2022/01/30 01:39:48;;;;;;;14.63;7.13;;;;;;;0.31;70.77;99772.13;5055904;28;20162;-82
2022/01/30 01:42:15;;;;;;;17.13;6.97;;;;;;;-0.11;70.33;99695.41;5055138;28;20521;-82
2022/01/30 01:44:46;;;;;;;16.90;6.70;;;;;;;0.29;70.86;99756.19;5054937;28;20160;-83
2022/01/30 01:47:12;;;;;;;15.25;6.70;;;;;;;0.10;70.81;99736.28;5054592;28;20173;-82
2022/01/30 01:49:39;;;;;;;14.40;7.15;;;;;;;0.15;71.50;99750.00;5054854;28;20230;-82
2022/01/30 01:54:47;;;;;;;19.35;8.88;;;;;;;-0.08;70.74;99688.22;5055665;28;20192;-82
2022/01/30 01:57:12;;;;;;;14.02;6.30;;;;;;;-1.57;71.27;99466.75;5055212;28;20162;-82
2022/01/30 01:59:38;;;;;;;16.03;6.70;;;;;;;-1.46;71.03;99475.16;5054636;28;20169;-82
2022/01/30 02:02:04;;;;;;;17.60;7.97;;;;;;;0.04;71.97;99728.25;5054326;28;20178;-82
2022/01/30 02:04:30;;;;;;;12.77;5.90;;;;;;;-2.18;71.49;99361.03;5055366;28;20150;-82
2022/01/30 02:09:44;;;;;;;18.23;8.55;;;;;;;-0.89;72.22;99599.63;5032790;28;20182;-82
2022/01/30 02:12:20;;;;;;;18.27;7.00;;;;;;;-1.43;72.42;99517.63;5033229;28;20668;-82
2022/01/30 02:25:37;;;;;;;14.35;6.30;;;;;;;-0.77;73.58;99652.91;5031755;28;20649;-82
2022/01/30 02:28:09;;;;;;;15.88;7.25;;;;;;;-1.12;73.70;99590.81;5031937;28;20213;-82
2022/01/30 02:30:36;;;;;;;13.55;6.45;;;;;;;-0.32;73.79;99712.50;5032087;28;20189;-82
2022/01/30 02:33:02;;;;;;;17.42;8.05;;;;;;;-0.36;74.24;99712.97;5031820;28;20236;-83
2022/01/30 02:35:28;;;;;;;13.45;6.40;;;;;;;-0.55;73.50;99673.16;5031882;28;20166;-83
2022/01/30 02:37:56;;;;;;;13.55;5.90;;;;;;;-1.50;74.59;99520.28;5032025;28;20177;-83
2022/01/30 02:40:22;;;;;;;13.57;7.40;;;;;;;-0.39;73.78;99703.63;5032001;28;20261;-83
2022/01/30 02:42:51;;;;;;;17.40;6.73;;;;;;;-3.12;74.68;99285.34;5032931;28;20225;-83
2022/01/30 02:45:18;;;;;;;18.70;8.63;;;;;;;-0.90;76.28;99650.03;5032024;28;20316;-82
2022/01/30 02:47:58;;;;;;;13.10;6.20;;;;;;;-3.49;76.03;99228.19;5051634;28;20221;-82
2022/01/30 02:50:39;;;;;;;15.68;7.20;;;;;;;-1.86;76.46;99473.97;5053937;28;20549;-83
2022/01/30 02:53:09;;;;;;;15.43;7.90;;;;;;;-0.61;77.12;99685.03;5053257;28;20212;-82
2022/01/30 02:55:35;;;;;;;20.60;8.32;;;;;;;-0.58;77.14;99676.97;5053503;28;20166;-83
2022/01/30 02:58:00;;;;;;;17.80;7.70;;;;;;;-1.85;76.83;99452.53;5053393;28;20608;-83
2022/01/30 03:00:26;;;;;;;18.30;8.13;;;;;;;-0.51;76.40;99665.22;5053623;28;20277;-82
2022/01/30 03:02:51;;;;;;;16.03;7.77;;;;;;;-0.63;76.10;99651.66;5069053;28;20162;-82
2022/01/30 03:05:17;;;;;;;15.17;6.57;;;;;;;-0.99;75.99;99611.94;5053285;28;20544;-82
2022/01/30 03:07:42;;;;;;;17.80;8.20;;;;;;;-2.10;75.64;99412.22;5053398;28;20164;-82
2022/01/30 03:10:08;;;;;;;18.67;8.37;;;;;;;-0.94;75.99;99619.81;5053408;28;20184;-82
2022/01/30 03:12:33;;;;;;;16.90;6.80;;;;;;;-1.36;75.68;99538.19;5053242;28;20199;-83
2022/01/30 03:14:59;;;;;;;20.27;8.53;;;;;;;-1.24;76.26;99566.59;5054227;28;20248;-82
2022/01/30 03:17:24;;;;;;;16.67;6.90;;;;;;;-0.73;76.70;99654.94;5053218;28;20179;-82
2022/01/30 03:19:50;;;;;;;8.57;4.20;;;;;;;-1.10;76.79;99592.72;5068821;28;20181;-82
2022/01/30 03:22:16;;;;;;;11.60;5.93;;;;;;;-1.84;77.43;99479.94;5053496;28;20168;-82
2022/01/30 03:24:42;;;;;;;13.95;6.53;;;;;;;-1.21;77.29;99585.91;5052893;28;20157;-81
2022/01/30 03:27:10;;;;;;;14.70;8.37;;;;;;;-2.09;76.54;99413.97;5053042;28;20173;-82
2022/01/30 03:29:37;;;;;;;18.15;8.38;;;;;;;-0.70;77.23;99642.81;5052984;28;20178;-82
2022/01/30 03:32:03;;;;;;;13.70;6.18;;;;;;;-0.93;77.23;99610.00;5053210;28;20162;-83
2022/01/30 03:34:29;;;;;;;12.45;6.28;;;;;;;-1.03;76.75;99567.69;5053059;28;20196;-82
2022/01/30 03:36:55;;;;;;;13.50;6.27;;;;;;;-0.75;76.34;99634.06;5052686;28;20154;-83
2022/01/30 03:39:20;;;;;;;17.17;7.27;;;;;;;-2.38;75.83;99349.31;5052719;28;20153;-83
2022/01/30 03:41:46;;;;;;;15.70;7.83;;;;;;;-0.85;75.83;99621.53;5052565;28;20173;-82
2022/01/30 03:44:11;;;;;;;16.37;7.17;;;;;;;-1.50;74.82;99488.00;5050904;28;20172;-82
2022/01/30 03:46:36;;;;;;;22.67;9.53;;;;;;;-1.04;75.12;99585.81;5052620;28;20244;-82
2022/01/30 03:49:02;;;;;;;20.87;11.20;;;;;;;-0.71;74.51;99610.34;5052395;28;20277;-82
2022/01/30 03:51:28;;;;;;;16.20;7.57;;;;;;;-2.44;74.47;99335.47;5069012;28;20560;-82
2022/01/30 03:53:53;;;;;;;18.20;7.40;;;;;;;-1.58;73.84;99464.97;5052742;28;20190;-83
2022/01/30 03:56:18;;;;;;;24.57;11.10;;;;;;;-4.66;73.53;98936.94;5052727;28;20160;-82
2022/01/30 03:58:44;;;;;;;17.03;7.97;;;;;;;-1.12;74.03;99548.59;5052697;28;20171;-82
2022/01/30 04:01:09;;;;;;;19.77;8.63;;;;;;;-1.21;73.77;99524.66;5051719;28;20157;-83
2022/01/30 04:03:36;;;;;;;16.50;8.47;;;;;;;-0.78;73.38;99594.03;5068162;28;20185;-82
2022/01/30 04:06:03;;;;;;;18.88;7.68;;;;;;;-1.67;72.66;99426.91;5052834;28;20158;-82
2022/01/30 04:08:29;;;;;;;12.63;5.53;;;;;;;-1.24;72.49;99488.78;5053544;28;20171;-85
2022/01/30 04:10:55;;;;;;;13.77;7.00;;;;;;;-3.46;72.49;99129.50;5052620;28;20161;-83
2022/01/30 04:13:20;;;;;;;17.40;7.30;;;;;;;-3.11;72.49;99237.59;5052617;28;20178;-82
2022/01/30 04:15:46;;;;;;;13.93;6.80;;;;;;;-3.17;72.78;99196.53;5052629;28;20173;-82
2022/01/30 04:18:12;;;;;;;16.23;8.33;;;;;;;-1.66;72.99;99455.09;5052392;28;20166;-82
2022/01/30 04:20:37;;;;;;;17.83;7.70;;;;;;;-2.44;73.30;99325.53;5052487;28;20299;-82
2022/01/30 04:23:03;;;;;;;23.70;11.03;;;;;;;-1.15;72.88;99518.53;5053259;28;20682;-82
2022/01/30 04:25:28;;;;;;;21.70;10.07;;;;;;;-3.70;73.18;99087.66;5052446;28;20299;-83
2022/01/30 04:27:54;;;;;;;21.47;9.53;;;;;;;-1.58;74.10;99456.66;5051868;28;20165;-83
2022/01/30 04:30:21;;;;;;;19.93;8.57;;;;;;;-0.95;73.71;99579.19;5068034;28;20252;-82
2022/01/30 04:32:50;;;;;;;17.73;8.73;;;;;;;-1.46;73.91;99500.84;5053856;28;20625;-82
2022/01/30 04:35:22;;;;;;;18.77;8.43;;;;;;;-1.00;74.34;99572.94;5052911;28;20176;-83
2022/01/30 04:40:40;;;;;;;39.83;14.20;;;;;;;-5.00;73.09;98888.47;5058620;28;20166;-83
2022/01/30 05:04:47;;;;;;;14.73;6.37;;;;;;;-1.91;74.18;99480.13;5029966;28;20158;-82
2022/01/30 05:09:25;;;;;;;13.63;6.50;;;;;;;-1.10;73.85;99582.78;5038422;28;20216;-85
2022/01/30 05:11:50;;;;;;;19.50;9.05;;;;;;;-2.39;73.61;99341.72;5015873;28;20213;-82
2022/01/30 05:14:19;;;;;;;23.33;11.13;;;;;;;-1.08;72.84;99570.50;5031411;28;20201;-82
2022/01/30 05:16:45;;;;;;;18.25;7.40;;;;;;;-2.80;72.61;99271.00;5030841;28;20245;-82
2022/01/30 05:19:12;;;;;;;15.90;7.87;;;;;;;-1.67;72.44;99445.88;5043723;28;20174;-83
2022/01/30 05:21:38;;;;;;;13.95;6.35;;;;;;;-1.42;71.80;99487.09;5031272;28;20626;-81
2022/01/30 05:24:04;;;;;;;15.68;6.07;;;;;;;-1.28;70.77;99489.22;5030796;28;20170;-82
2022/01/30 05:26:31;;;;;;;12.13;5.77;;;;;;;-1.27;70.07;99486.00;5030140;28;20685;-82
2022/01/30 05:28:57;;;;;;;14.20;6.65;;;;;;;-1.51;68.54;99427.56;5046495;28;20608;-83
2022/01/30 05:31:23;;;;;;;10.83;5.37;;;;;;;-1.12;67.73;99457.56;5051512;28;20162;-82
2022/01/30 05:33:48;;;;;;;12.90;6.03;;;;;;;-1.06;67.60;99445.72;5052162;28;20239;-82
2022/01/30 05:36:14;;;;;;;8.97;5.20;;;;;;;-2.00;66.76;99278.41;5052151;28;20215;-82
2022/01/30 05:38:40;;;;;;;12.97;5.43;;;;;;;-1.32;66.23;99355.63;5052167;28;20173;-83
2022/01/30 05:41:06;;;;;;;9.63;5.57;;;;;;;-0.96;65.89;99392.75;5068247;28;20704;-82
2022/01/30 05:43:33;;;;;;;8.60;4.70;;;;;;;-1.40;65.32;99315.22;5052610;28;20817;-82
2022/01/30 05:46:12;;;;;;;16.70;7.88;;;;;;;-0.74;64.84;99396.34;5052323;28;20157;-82
2022/01/30 05:48:38;;;;;;;19.58;7.88;;;;;;;-0.73;65.12;99401.47;5051600;28;20229;-82
2022/01/30 05:51:04;;;;;;;19.67;8.30;;;;;;;-0.30;64.59;99454.91;5067544;28;20605;-82
2022/01/30 05:53:30;;;;;;;18.57;8.53;;;;;;;-0.99;64.21;99321.28;5051555;28;20268;-83
2022/01/30 05:55:55;;;;;;;16.43;7.43;;;;;;;-2.54;63.75;99055.38;5050768;28;20189;-82
2022/01/30 05:58:21;;;;;;;13.83;5.90;;;;;;;-1.21;64.61;99282.97;5051826;28;20249;-82
2022/01/30 06:00:46;;;;;;;15.03;6.97;;;;;;;-1.06;65.03;99319.03;5054114;28;20676;-83
2022/01/30 06:03:11;;;;;;;13.97;6.47;;;;;;;-2.75;64.88;99028.72;5055981;28;20158;-82
2022/01/30 06:05:38;;;;;;;14.00;7.67;;;;;;;-1.59;65.20;99226.63;5054513;28;20244;-83
2022/01/30 06:08:13;;;;;;;16.85;8.27;;;;;;;-1.52;65.17;99251.22;5054924;28;20169;-82
2022/01/30 06:10:39;;;;;;;17.13;8.20;;;;;;;-0.71;65.47;99399.97;5056419;28;20202;-83
2022/01/30 06:13:04;;;;;;;16.57;7.53;;;;;;;-2.14;65.67;99146.53;5054633;28;20215;-83
2022/01/30 06:15:30;;;;;;;24.00;11.47;;;;;;;-0.52;65.53;99399.94;5055248;28;20244;-82
2022/01/30 06:17:55;;;;;;;25.57;8.40;;;;;;;-0.92;65.21;99300.34;5054447;28;20553;-82
2022/01/30 06:20:21;;;;;;;16.20;7.47;;;;;;;-1.01;65.53;99320.31;5053909;28;20610;-81
2022/01/30 06:22:46;;;;;;;17.57;8.53;;;;;;;-0.41;66.16;99420.78;5054584;28;20170;-82
2022/01/30 06:25:13;;;;;;;19.90;9.80;;;;;;;-0.26;66.26;99409.63;5054492;28;20649;-83
2022/01/30 06:27:38;;;;;;;25.90;11.10;;;;;;;-0.46;65.59;99349.88;5055663;28;20185;-82
2022/01/30 06:30:05;;;;;;;14.93;7.10;;;;;;;-0.14;65.15;99425.63;5054497;28;20567;-82
2022/01/30 06:32:31;;;;;;;13.32;6.93;;;;;;;-0.68;65.63;99325.69;5055601;28;20184;-83
2022/01/30 06:34:56;;;;;;;14.73;7.43;;;;;;;-0.46;64.56;99348.25;5056467;28;20209;-82
2022/01/30 06:37:22;;;;;;;20.27;8.10;;;;;;;-0.24;64.53;99355.91;5035694;28;20276;-82
2022/01/30 06:39:47;;;;;;;11.27;5.10;;;;;;;-0.96;63.81;99189.91;5035668;28;20208;-82
2022/01/30 06:42:13;;;;;;;22.73;9.10;;;;;;;0.06;64.02;99352.63;5035152;28;20177;-83
2022/01/30 06:44:39;;;;;;;28.30;11.80;;;;;;;-0.49;64.07;99247.69;5036051;28;20168;-81
2022/01/30 06:47:05;;;;;;;22.77;10.30;;;;;;;0.65;64.69;99423.19;5036210;28;20162;-82
2022/01/30 06:49:31;;;;;;;31.10;14.45;;;;;;;0.96;64.44;99424.06;5035440;28;20218;-82
2022/01/30 06:51:56;;;;;;;22.67;9.83;;;;;;;0.34;62.20;99290.31;5036501;28;20177;-82
2022/01/30 06:54:22;;;;;;;17.80;9.07;;;;;;;0.95;61.09;99412.34;5035687;28;20190;-82
2022/01/30 06:56:47;;;;;;;12.37;5.73;;;;;;;-0.91;61.54;99064.50;5035882;28;20166;-82
2022/01/30 06:59:13;;;;;;;18.53;7.27;;;;;;;1.09;61.23;99424.28;5045108;28;20182;-83
2022/01/30 07:01:38;;;;;;;15.43;8.03;;;;;;;-0.83;61.21;99093.31;5045980;28;20166;-84
2022/01/30 07:04:04;;;;;;;26.77;10.67;;;;;;;1.51;60.72;99432.66;5069173;28;20619;-82
2022/01/30 07:06:30;;;;;;;11.73;5.60;;;;;;;-0.05;60.22;99188.44;5035072;28;20170;-82
2022/01/30 07:08:55;;;;;;;16.20;8.57;;;;;;;1.29;59.60;99371.91;5036082;28;20556;-82
2022/01/30 07:11:21;;;;;;;16.10;7.63;;;;;;;-1.94;58.71;98830.09;5035264;28;20408;-82
2022/01/30 07:13:47;;;;;;;14.17;7.67;;;;;;;-1.91;57.92;98809.63;5053874;28;20247;-82
2022/01/30 07:16:15;;;;;;;12.97;7.93;;;;;;;-1.73;57.69;98852.44;5038991;28;20162;-83
2022/01/30 07:18:41;;;;;;;17.05;7.55;;;;;;;1.96;56.72;99442.00;5040119;28;20401;-82
2022/01/30 07:21:09;;;;;;;19.27;9.33;;;;;;;1.07;56.15;99237.22;5046200;28;20185;-82
2022/01/30 07:23:35;;;;;;;23.60;9.77;;;;;;;-0.05;56.30;99029.22;5047831;28;20170;-82
2022/01/30 07:26:02;;;;;;;20.90;9.53;;;;;;;2.14;54.82;99406.00;5033380;28;20447;-82
2022/01/30 07:28:28;;;;;;;21.90;11.43;;;;;;;0.53;54.49;99120.84;5068012;28;20581;-82
2022/01/30 07:30:53;;;;;;;22.60;8.80;;;;;;;1.79;54.41;99276.88;5065315;28;21073;-81
2022/01/30 07:33:19;;;;;;;16.73;7.80;;;;;;;3.07;52.81;99382.16;5033791;28;20198;-82
2022/01/30 07:35:44;;;;;;;14.30;6.30;;;;;;;1.66;50.43;99061.31;5034733;28;20634;-82
2022/01/30 07:38:10;;;;;;;20.67;8.10;;;;;;;1.68;50.63;99118.03;5035707;28;20161;-82
2022/01/30 07:40:37;;;;;;;20.03;8.03;;;;;;;3.08;51.21;99360.53;5034235;28;20193;-83
2022/01/30 07:43:03;;;;;;;15.27;5.63;;;;;;;2.93;50.71;99376.16;5034806;28;20288;-83
2022/01/30 07:45:28;;;;;;;26.07;10.87;;;;;;;3.21;48.98;99354.03;5052527;28;20463;-81
2022/01/30 07:47:54;;;;;;;12.20;4.20;;;;;;;1.53;49.04;99149.34;5052616;28;20217;-82
2022/01/30 07:50:19;;;;;;;15.17;7.00;;;;;;;3.09;49.51;99360.63;5068213;28;20181;-83
2022/01/30 07:52:45;;;;;;;13.30;6.37;;;;;;;2.27;49.09;99207.25;5053124;28;20192;-82
2022/01/30 07:55:10;;;;;;;9.07;4.27;;;;;;;2.11;49.54;99214.41;5053418;28;20177;-83
2022/01/30 07:57:36;;;;;;;11.97;5.00;;;;;;;2.24;48.77;99249.47;5052074;28;20158;-83
2022/01/30 08:00:04;;;;;;;10.17;5.00;;;;;;;2.07;49.49;99244.00;5052448;28;20166;-82
2022/01/30 08:02:30;;;;;;;10.70;5.20;;;;;;;1.08;50.29;99093.53;5068091;28;20618;-83
2022/01/30 08:04:55;;;;;;;18.70;9.10;;;;;;;2.68;50.68;99366.75;5053882;28;20391;-82
2022/01/30 08:07:21;;;;;;;11.87;5.70;;;;;;;1.44;51.04;99156.13;5052245;28;20165;-82
2022/01/30 08:09:46;;;;;;;13.77;7.73;;;;;;;2.75;50.59;99356.44;5049039;28;20161;-83
2022/01/30 08:12:12;;;;;;;20.97;9.60;;;;;;;2.60;49.97;99285.38;5033762;28;20324;-83
2022/01/30 08:14:37;;;;;;;12.67;7.17;;;;;;;2.93;49.25;99348.66;5052191;28;20280;-82
2022/01/30 08:17:03;;;;;;;8.63;4.77;;;;;;;0.03;49.31;98863.13;5065036;28;20181;-85
2022/01/30 08:19:29;;;;;;;11.03;5.77;;;;;;;2.22;50.24;99225.16;5075803;28;20169;-82
2022/01/30 08:21:56;;;;;;;11.93;6.63;;;;;;;2.75;50.17;99289.84;5052902;28;20986;-82
2022/01/30 08:24:24;;;;;;;51.90;24.77;;;;;;;0.60;50.23;98912.25;5052251;28;20185;-83
2022/01/30 08:26:50;;;;;;;14.10;7.83;;;;;;;1.25;49.80;99020.03;5044337;28;20443;-81
2022/01/30 08:29:15;;;;;;;26.93;11.00;;;;;;;0.74;49.90;98935.72;5052029;28;20434;-82
2022/01/30 08:31:40;;;;;;;23.37;11.07;;;;;;;3.23;49.51;99294.09;5051014;28;20271;-82
2022/01/30 08:34:06;;;;;;;38.00;18.30;;;;;;;3.30;49.97;99292.13;5044162;28;20261;-82
2022/01/30 08:36:31;;;;;;;116.43;42.20;;;;;;;3.59;48.99;99311.66;5032228;28;20177;-82
2022/01/30 08:38:57;;;;;;;41.67;19.53;;;;;;;3.06;48.74;99249.50;5039791;28;20290;-81
2022/01/30 08:41:22;;;;;;;35.63;17.10;;;;;;;3.48;48.79;99327.56;5037303;28;20182;-81
2022/01/30 08:43:47;;;;;;;30.97;14.80;;;;;;;3.46;48.58;99331.59;5046972;28;20268;-81
2022/01/30 08:46:14;;;;;;;15.70;8.40;;;;;;;3.04;48.36;99228.53;5032884;28;20178;-81
2022/01/30 08:48:40;;;;;;;15.47;8.17;;;;;;;2.88;48.30;99196.63;5052344;28;20225;-86
2022/01/30 08:51:06;;;;;;;14.30;7.27;;;;;;;2.99;47.69;99194.06;5062526;28;20513;-82
2022/01/30 08:53:31;;;;;;;17.10;7.43;;;;;;;3.22;46.91;99193.16;5040096;28;20925;-84
2022/01/30 08:55:57;;;;;;;21.37;9.70;;;;;;;3.58;46.35;99234.84;5046290;28;20664;-82
2022/01/30 08:58:22;;;;;;;26.37;11.87;;;;;;;1.47;46.22;98864.59;5051993;28;20174;-82
2022/01/30 09:00:47;;;;;;;39.33;16.47;;;;;;;2.70;45.55;99028.75;5052017;28;20184;-82
2022/01/30 09:03:13;;;;;;;31.90;13.30;;;;;;;2.88;45.23;99091.63;5042770;28;20189;-82
2022/01/30 09:05:39;;;;;;;21.80;9.43;;;;;;;3.38;46.25;99170.06;5053670;28;20211;-82
2022/01/30 09:08:07;;;;;;;13.73;7.10;;;;;;;3.03;46.66;99104.28;5044690;28;20201;-82
2022/01/30 09:10:41;;;;;;;15.67;7.23;;;;;;;4.01;45.41;99254.47;5032712;28;20238;-84
2022/01/30 09:13:34;;;;;;;9.20;5.00;;;;;;;3.98;44.94;99258.41;5068960;28;20520;-89
2022/01/30 09:16:01;;;;;;;29.63;15.53;;;;;;;1.17;45.96;98741.19;5030199;28;20441;-83
2022/01/30 09:18:27;;;;;;;34.77;15.10;;;;;;;4.37;45.53;99225.09;5030113;28;20969;-83
2022/01/30 09:20:53;;;;;;;31.67;13.67;;;;;;;4.23;45.71;99240.88;5030921;28;20490;-82
2022/01/30 09:23:19;;;;;;;49.07;20.07;;;;;;;3.84;46.18;99148.97;5027904;28;20908;-83
2022/01/30 09:25:46;;;;;;;94.97;39.83;;;;;;;2.67;45.83;98847.78;5027913;28;20433;-82
2022/01/30 09:28:12;;;;;;;24.73;12.07;;;;;;;4.68;45.55;99173.63;5030382;28;20225;-82
2022/01/30 09:30:37;;;;;;;19.93;9.10;;;;;;;4.80;44.82;99214.53;5030238;28;20457;-83
2022/01/30 09:33:03;;;;;;;19.60;8.40;;;;;;;4.02;45.75;99126.00;5030832;28;20753;-83
2022/01/30 09:35:28;;;;;;;20.90;11.33;;;;;;;4.03;44.05;99100.19;5031637;28;20384;-82
2022/01/30 09:37:54;;;;;;;32.00;14.53;;;;;;;4.81;43.25;99216.22;5032898;28;20622;-82
2022/01/30 09:40:19;;;;;;;13.20;6.70;;;;;;;4.48;44.23;99224.13;5033333;28;20790;-82
2022/01/30 09:42:47;;;;;;;22.73;9.23;;;;;;;4.54;44.02;99179.41;5033337;28;20709;-82
2022/01/30 09:45:15;;;;;;;13.73;6.53;;;;;;;3.43;43.59;98988.63;5017622;28;20685;-82
2022/01/30 09:47:41;;;;;;;26.93;11.90;;;;;;;4.81;43.80;99198.69;5033585;28;20507;-82
2022/01/30 09:50:08;;;;;;;48.67;20.00;;;;;;;3.75;43.54;99011.56;5034140;28;20895;-82
2022/01/30 09:52:33;;;;;;;26.50;11.87;;;;;;;4.86;43.79;99214.91;5041117;28;20435;-82
2022/01/30 09:54:59;;;;;;;48.73;19.57;;;;;;;3.71;44.32;99004.63;5044093;28;20819;-83
2022/01/30 09:57:24;;;;;;;27.90;10.37;;;;;;;4.13;44.49;99023.97;5051427;28;20172;-83
2022/01/30 09:59:50;;;;;;;43.57;16.63;;;;;;;5.01;45.03;99147.25;5039134;28;20219;-82
2022/01/30 10:02:15;;;;;;;30.77;15.13;;;;;;;4.56;44.69;99035.03;5049238;28;20607;-82
2022/01/30 10:04:41;;;;;;;26.50;13.90;;;;;;;5.64;44.19;99182.88;5043619;28;20200;-83
2022/01/30 10:07:14;;;;;;;14.80;7.67;;;;;;;5.62;43.61;99164.34;5042735;28;20183;-82
2022/01/30 10:09:48;;;;;;;18.37;8.73;;;;;;;5.52;44.27;99162.06;5048611;28;20996;-83
2022/01/30 10:12:23;;;;;;;22.87;10.87;;;;;;;5.58;44.09;99155.75;5040362;28;20976;-83
2022/01/30 10:15:31;;;;;;;17.70;8.93;;;;;;;5.61;43.67;99152.56;5046232;28;20458;-81
2022/01/30 10:18:04;;;;;;;16.10;8.23;;;;;;;5.69;42.49;99151.34;4995700;28;20506;-83
2022/01/30 10:20:36;;;;;;;14.27;7.43;;;;;;;5.72;43.10;99144.88;4994609;28;20418;-83
2022/01/30 10:23:08;;;;;;;27.73;14.80;;;;;;;6.22;43.04;99156.97;4993658;28;20927;-82
2022/01/30 10:25:38;;;;;;;26.93;14.30;;;;;;;5.62;41.75;98968.50;4996555;28;20485;-83
2022/01/30 10:28:19;;;;;;;17.17;9.77;;;;;;;7.04;40.24;99138.09;4977988;28;20528;-82
2022/01/30 10:30:44;;;;;;;10.17;5.63;;;;;;;6.78;39.58;99123.28;4993359;28;20423;-82
2022/01/30 10:33:12;;;;;;;9.17;4.90;;;;;;;6.72;40.85;99117.03;5005910;28;20525;-82
2022/01/30 10:36:14;;;;;;;13.13;6.80;;;;;;;6.48;39.81;99011.81;4998343;28;20195;-83
2022/01/30 10:38:52;;;;;;;11.87;5.20;;;;;;;6.77;38.63;98999.91;4947887;29;20496;-82
2022/01/30 10:41:21;;;;;;;11.63;5.80;;;;;;;7.68;37.27;99094.44;4954723;29;20431;-83
2022/01/30 10:43:52;;;;;;;10.07;5.70;;;;;;;7.13;37.19;99009.34;4969099;28;20445;-82
2022/01/30 10:46:19;;;;;;;10.60;5.77;;;;;;;7.54;37.85;99081.91;4936342;29;20424;-83
2022/01/30 10:49:02;;;;;;;9.43;5.03;;;;;;;5.40;37.99;98759.78;4987003;28;20224;-84
2022/01/30 10:51:30;;;;;;;18.87;7.93;;;;;;;6.88;38.84;99031.53;5013914;28;20567;-82
2022/01/30 10:53:57;;;;;;;17.40;8.83;;;;;;;7.00;38.54;98957.50;5012824;28;20531;-82
2022/01/30 10:56:29;;;;;;;18.93;7.60;;;;;;;7.40;37.69;98897.41;5011830;28;20436;-82
2022/01/30 10:59:13;;;;;;;13.27;6.70;;;;;;;8.43;36.96;99060.25;5011841;28;20269;-82
2022/01/30 11:01:47;;;;;;;27.63;10.73;;;;;;;8.03;36.41;99012.09;4998696;28;20429;-81
2022/01/30 11:04:30;;;;;;;15.40;7.23;;;;;;;8.67;36.06;99049.63;5011886;28;20171;-83
2022/01/30 11:07:04;;;;;;;25.20;12.97;;;;;;;8.84;35.29;99041.13;5012535;28;20446;-82
2022/01/30 11:12:05;;;;;;;18.87;9.50;;;;;;;8.74;35.40;99023.84;5002921;28;20238;-83
2022/01/30 11:14:39;;;;;;;20.67;10.77;;;;;;;8.71;35.12;98940.44;5014439;28;20202;-82
2022/01/30 11:17:08;;;;;;;9.73;5.50;;;;;;;8.35;35.29;98842.16;5045599;28;20177;-82
2022/01/30 11:19:39;;;;;;;14.57;8.30;;;;;;;9.25;34.66;98966.31;5037985;28;20178;-82
2022/01/30 11:22:19;;;;;;;11.30;6.70;;;;;;;9.34;34.12;98904.41;5036837;28;20165;-82
2022/01/30 11:24:47;;;;;;;23.47;12.97;;;;;;;10.28;34.48;98995.75;5044566;28;20223;-83
2022/01/30 11:27:17;;;;;;;10.93;4.30;;;;;;;9.53;34.35;98925.38;5047323;28;20177;-82
2022/01/30 11:29:45;;;;;;;12.57;6.10;;;;;;;9.24;35.22;98823.16;5061804;28;20173;-85
2022/01/30 11:32:11;;;;;;;12.63;6.03;;;;;;;9.06;34.64;98815.72;5040214;28;20411;-83
2022/01/30 11:34:38;;;;;;;12.50;6.77;;;;;;;10.32;34.65;98982.44;5044488;28;20205;-83
2022/01/30 11:37:09;;;;;;;14.43;6.33;;;;;;;10.49;34.46;98958.63;5045573;28;20633;-84
2022/01/30 11:39:37;;;;;;;13.27;7.80;;;;;;;10.13;35.36;98883.91;5053155;28;20586;-82
2022/01/30 11:42:10;;;;;;;9.37;4.90;;;;;;;10.76;34.73;98946.97;5037253;28;20207;-83
2022/01/30 11:44:37;;;;;;;16.23;8.13;;;;;;;10.30;34.91;98906.47;5044728;28;20178;-83
2022/01/30 11:47:03;;;;;;;9.53;4.53;;;;;;;9.84;35.57;98824.63;5059687;28;20272;-85
2022/01/30 11:49:41;;;;;;;13.07;6.67;;;;;;;10.59;35.66;98928.66;5051155;28;20248;-82
2022/01/30 11:52:11;;;;;;;7.57;3.67;;;;;;;10.77;35.30;98925.88;5064256;28;20182;-83
2022/01/30 11:54:50;;;;;;;8.03;4.53;;;;;;;10.78;35.38;98930.16;5030951;28;20200;-84
2022/01/30 11:57:25;;;;;;;11.57;4.90;;;;;;;10.81;35.66;98931.94;5045906;28;20172;-83
2022/01/30 12:00:02;;;;;;;8.13;5.17;;;;;;;10.70;35.86;98893.59;5044101;28;20180;-83
2022/01/30 12:02:31;;;;;;;4.60;3.50;;;;;;;10.78;35.51;98864.31;5044663;28;20184;-82
2022/01/30 12:04:57;;;;;;;6.40;4.20;;;;;;;11.37;35.90;98932.16;5043736;28;20165;-83
2022/01/30 12:07:41;;;;;;;6.60;3.33;;;;;;;11.44;35.68;98930.69;5039141;28;20249;-83
2022/01/30 12:10:16;;;;;;;6.47;3.90;;;;;;;11.78;36.10;98933.53;5047770;28;20177;-83
2022/01/30 12:12:58;;;;;;;7.87;3.67;;;;;;;11.97;35.43;98935.84;5051729;28;20212;-84
2022/01/30 12:15:44;;;;;;;4.63;3.43;;;;;;;12.28;34.10;98943.53;5037978;28;20170;-83
2022/01/30 12:18:14;;;;;;;6.90;2.90;;;;;;;12.13;34.39;98881.31;5050649;28;20195;-83
2022/01/30 12:21:00;;;;;;;6.00;2.93;;;;;;;12.33;33.31;98926.75;5051750;28;20542;-85
2022/01/30 12:23:27;;;;;;;7.67;3.80;;;;;;;12.16;33.86;98925.44;5053363;28;20189;-86
2022/01/30 12:26:16;;;;;;;6.10;3.30;;;;;;;12.20;34.21;98927.22;5052370;28;20248;-82
2022/01/30 12:28:54;;;;;;;3.90;2.13;;;;;;;12.17;33.85;98924.59;5051498;28;20162;-83
2022/01/30 12:31:40;;;;;;;2.97;1.90;;;;;;;12.13;33.86;98921.94;5038498;28;20196;-83
2022/01/30 12:34:15;;;;;;;5.67;2.57;;;;;;;12.06;33.86;98918.34;5037278;28;20213;-82